Time;durP1;ratioP1;P1;durP2;ratioP2;P2;SDS_P1;SDS_P2;PMS_P1;PMS_P2;Temp;Humidity;BMP_temperature;BMP_pressure;BME280_temperature;BME280_humidity;BME280_pressure;Samples;Min_cycle;Max_cycle;Signal;HPM_P1;HPM_P2
2024/01/06 00:01:58;;;;;;;15.10;11.60;;;;;;;-1.63;78.79;100010.81;111265;242;38399;-70
2024/01/06 00:04:32;;;;;;;14.90;10.60;;;;;;;-1.63;78.91;100014.06;111257;242;38290;-70
2024/01/06 00:07:06;;;;;;;15.50;10.90;;;;;;;-1.65;79.03;100014.73;111270;242;38292;-70
2024/01/06 00:09:40;;;;;;;15.90;10.30;;;;;;;-1.66;78.95;100016.61;111213;242;38345;-69
2024/01/06 00:12:14;;;;;;;14.60;10.40;;;;;;;-1.64;79.13;100012.17;111255;242;38517;-69
2024/01/06 00:14:48;;;;;;;16.10;11.40;;;;;;;-1.60;79.40;100012.54;111263;242;38308;-70
2024/01/06 00:17:22;;;;;;;17.00;11.70;;;;;;;-1.58;79.60;100017.85;111279;242;38853;-71
2024/01/06 00:19:57;;;;;;;17.60;11.90;;;;;;;-1.57;79.77;100023.17;111249;242;38384;-71
2024/01/06 00:22:31;;;;;;;18.50;12.80;;;;;;;-1.59;79.97;100024.85;111274;242;38660;-70
2024/01/06 00:25:08;;;;;;;18.00;12.60;;;;;;;-1.62;79.94;100020.39;111216;242;39784;-70
2024/01/06 00:27:44;;;;;;;17.60;12.10;;;;;;;-1.65;80.16;100017.64;111257;242;38828;-71
2024/01/06 00:30:18;;;;;;;16.60;11.20;;;;;;;-1.66;80.29;100019.70;111121;242;176115;-71
2024/01/06 00:32:52;;;;;;;14.90;10.20;;;;;;;-1.64;80.52;100019.35;111266;242;38338;-71
2024/01/06 00:35:26;;;;;;;13.00;9.30;;;;;;;-1.62;80.51;100016.48;111265;242;39558;-70
2024/01/06 00:38:01;;;;;;;13.90;9.80;;;;;;;-1.61;80.62;100016.13;111257;242;38586;-69
2024/01/06 00:40:35;;;;;;;13.20;9.70;;;;;;;-1.62;80.61;100015.96;111259;242;38270;-70
2024/01/06 00:43:10;;;;;;;15.20;10.90;;;;;;;-1.62;80.62;100011.16;111264;242;38263;-73
2024/01/06 00:45:44;;;;;;;15.20;10.30;;;;;;;-1.64;80.68;100012.53;111148;242;175862;-70
2024/01/06 00:48:17;;;;;;;12.00;8.40;;;;;;;-1.68;80.78;100013.86;111291;242;38511;-71
2024/01/06 00:50:51;;;;;;;13.90;9.60;;;;;;;-1.73;80.64;100010.06;111249;242;38322;-70
2024/01/06 00:53:25;;;;;;;11.50;8.10;;;;;;;-1.77;80.79;100000.48;111130;242;38305;-71
2024/01/06 00:55:59;;;;;;;11.30;8.00;;;;;;;-1.77;80.90;100002.70;111221;242;39527;-71
2024/01/06 00:58:33;;;;;;;11.90;9.00;;;;;;;-1.76;81.16;100000.83;111258;242;38264;-71
2024/01/06 01:01:07;;;;;;;11.00;8.70;;;;;;;-1.77;81.16;99996.38;111226;242;38437;-70
2024/01/06 01:03:42;;;;;;;13.10;9.30;;;;;;;-1.83;81.18;99992.75;111254;242;38350;-67
2024/01/06 01:06:18;;;;;;;13.10;9.60;;;;;;;-1.84;81.27;99987.08;111247;242;38374;-69
2024/01/06 01:08:53;;;;;;;13.30;9.20;;;;;;;-1.85;81.42;99977.02;111271;242;38787;-71
2024/01/06 01:11:27;;;;;;;13.10;8.70;;;;;;;-1.86;81.47;99977.17;111155;242;172995;-70
2024/01/06 01:14:02;;;;;;;13.00;8.70;;;;;;;-1.86;81.37;99980.59;111253;242;39479;-69
2024/01/06 01:16:37;;;;;;;12.00;9.10;;;;;;;-1.88;81.43;99990.48;111277;242;39476;-69
2024/01/06 01:19:11;;;;;;;13.30;9.40;;;;;;;-1.90;81.33;99991.84;111296;242;39950;-70
2024/01/06 01:21:45;;;;;;;15.30;9.40;;;;;;;-1.96;81.33;99993.69;111260;242;39456;-70
2024/01/06 01:24:19;;;;;;;14.10;9.70;;;;;;;-2.03;81.43;99993.98;111324;242;39024;-72
2024/01/06 01:26:52;;;;;;;11.80;8.20;;;;;;;-2.04;81.51;99999.10;111324;242;38524;-70
2024/01/06 01:29:26;;;;;;;10.80;8.20;;;;;;;-2.00;81.63;100005.80;111248;242;38899;-71
2024/01/06 01:32:00;;;;;;;11.30;8.10;;;;;;;-1.98;81.64;100011.95;111286;242;39567;-70
2024/01/06 01:34:34;;;;;;;13.40;9.60;;;;;;;-1.94;81.67;100010.11;111271;242;39109;-69
2024/01/06 01:37:08;;;;;;;13.00;8.90;;;;;;;-1.90;81.84;100009.80;111277;242;39621;-70
2024/01/06 01:39:41;;;;;;;16.30;10.20;;;;;;;-1.86;81.78;100005.38;111265;242;38368;-69
2024/01/06 01:42:15;;;;;;;17.60;11.10;;;;;;;-1.86;81.73;99993.58;111270;242;38268;-70
2024/01/06 01:44:49;;;;;;;12.60;9.30;;;;;;;-1.91;81.66;99995.08;111241;242;38720;-70
2024/01/06 01:47:23;;;;;;;14.30;9.80;;;;;;;-1.98;81.54;99988.02;111266;242;38266;-71
2024/01/06 01:49:57;;;;;;;14.70;10.00;;;;;;;-1.98;81.73;99990.08;111242;242;38335;-71
2024/01/06 01:52:31;;;;;;;15.40;9.60;;;;;;;-1.94;81.84;99991.13;111258;242;38289;-71
2024/01/06 01:55:06;;;;;;;17.00;10.00;;;;;;;-1.91;82.00;99993.04;111171;242;37981;-71
2024/01/06 01:57:40;;;;;;;14.90;10.00;;;;;;;-1.92;81.78;99988.42;111262;242;39562;-70
2024/01/06 02:00:17;;;;;;;14.20;9.70;;;;;;;-1.94;81.84;99991.98;111112;242;38507;-70
2024/01/06 02:02:52;;;;;;;15.60;10.60;;;;;;;-1.97;81.79;99993.85;111277;242;38390;-70
2024/01/06 02:05:27;;;;;;;13.80;9.70;;;;;;;-1.98;81.97;99992.80;111255;242;38253;-70
2024/01/06 02:08:00;;;;;;;14.50;9.70;;;;;;;-1.97;81.96;99992.98;111318;242;38559;-71
2024/01/06 02:10:35;;;;;;;13.50;9.00;;;;;;;-1.97;81.85;99990.42;111301;242;38241;-71
2024/01/06 02:13:15;;;;;;;14.30;9.70;;;;;;;-1.98;81.72;99994.52;111303;242;38794;-72
2024/01/06 02:15:49;;;;;;;13.50;10.00;;;;;;;-1.98;81.83;99985.98;111274;242;38895;-72
2024/01/06 02:18:23;;;;;;;13.20;9.10;;;;;;;-2.01;81.64;99984.27;111315;242;38678;-72
2024/01/06 02:20:59;;;;;;;14.90;9.70;;;;;;;-2.04;81.62;99977.57;111288;242;38657;-72
2024/01/06 02:23:36;;;;;;;13.70;10.20;;;;;;;-2.08;81.77;99974.13;111154;242;38893;-69
2024/01/06 02:26:14;;;;;;;15.10;9.70;;;;;;;-2.10;81.80;99973.27;111095;242;176071;-69
2024/01/06 02:28:50;;;;;;;12.90;8.60;;;;;;;-2.10;81.80;99969.50;111303;242;38329;-69
2024/01/06 02:31:24;;;;;;;12.80;8.20;;;;;;;-2.09;81.74;99966.27;111221;242;39495;-69
2024/01/06 02:34:02;;;;;;;11.80;8.50;;;;;;;-2.06;81.68;99962.00;111266;242;38378;-70
2024/01/06 02:36:39;;;;;;;12.00;8.30;;;;;;;-2.02;81.68;99965.44;111116;242;176097;-70
2024/01/06 02:39:13;;;;;;;11.80;8.40;;;;;;;-2.01;81.51;99967.69;111109;242;38968;-71
2024/01/06 02:41:46;;;;;;;11.10;8.00;;;;;;;-2.00;81.53;99966.66;111295;242;38295;-71
2024/01/06 02:44:20;;;;;;;13.10;8.80;;;;;;;-2.01;81.45;99967.68;111225;242;38599;-71
2024/01/06 02:46:54;;;;;;;12.90;8.40;;;;;;;-2.00;81.47;99962.89;111302;242;38437;-70
2024/01/06 02:49:27;;;;;;;11.40;8.30;;;;;;;-2.00;81.52;99965.63;111279;242;39014;-70
2024/01/06 02:52:01;;;;;;;9.50;7.60;;;;;;;-1.99;81.71;99961.19;111136;242;38300;-70
2024/01/06 02:54:35;;;;;;;13.30;10.30;;;;;;;-1.98;81.69;99961.55;111141;244;38663;-70
2024/01/06 02:57:09;;;;;;;11.50;8.90;;;;;;;-1.98;81.94;99957.09;111155;244;38478;-71
2024/01/06 02:59:42;;;;;;;14.60;10.40;;;;;;;-1.99;81.94;99957.60;111092;244;38325;-71
2024/01/06 03:02:17;;;;;;;15.70;10.30;;;;;;;-2.00;81.96;99957.09;111102;244;38715;-72
2024/01/06 03:04:51;;;;;;;12.90;9.80;;;;;;;-1.99;82.03;99965.81;111073;243;39100;-72
2024/01/06 03:07:25;;;;;;;11.90;8.40;;;;;;;-1.98;82.02;99965.13;110976;244;175770;-70
2024/01/06 03:09:59;;;;;;;12.30;9.40;;;;;;;-1.94;82.09;99964.98;111102;244;38573;-70
2024/01/06 03:12:32;;;;;;;12.70;9.30;;;;;;;-1.91;82.20;99960.39;111005;244;39435;-69
2024/01/06 03:15:07;;;;;;;14.60;10.50;;;;;;;-1.91;82.14;99958.00;111091;244;39447;-69
2024/01/06 03:17:41;;;;;;;17.60;12.30;;;;;;;-1.91;82.25;99954.06;111111;244;39928;-70
2024/01/06 03:20:17;;;;;;;13.80;9.90;;;;;;;-1.93;82.30;99948.40;111093;244;39455;-70
2024/01/06 03:22:52;;;;;;;13.10;9.50;;;;;;;-1.96;82.30;99945.33;111134;244;38855;-71
2024/01/06 03:25:26;;;;;;;12.20;8.90;;;;;;;-1.92;82.39;99950.64;111077;244;38392;-71
2024/01/06 03:28:00;;;;;;;14.80;9.60;;;;;;;-1.88;82.42;99949.45;111114;244;38249;-70
2024/01/06 03:30:33;;;;;;;13.60;10.10;;;;;;;-1.88;82.52;99949.47;111113;244;39458;-71
2024/01/06 03:33:08;;;;;;;13.50;10.40;;;;;;;-1.92;82.40;99942.77;111074;243;39475;-70
2024/01/06 03:35:42;;;;;;;14.00;10.80;;;;;;;-1.93;82.57;99947.02;111083;244;38346;-70
2024/01/06 03:38:15;;;;;;;12.70;9.80;;;;;;;-1.94;82.76;99945.83;111111;244;38397;-69
2024/01/06 03:40:49;;;;;;;14.20;9.80;;;;;;;-1.96;82.70;99943.95;111113;244;38431;-70
2024/01/06 03:43:22;;;;;;;12.60;9.20;;;;;;;-1.95;82.69;99942.08;111089;244;38999;-70
2024/01/06 03:45:57;;;;;;;12.40;9.20;;;;;;;-1.94;82.85;99945.32;111108;244;38632;-70
2024/01/06 03:48:31;;;;;;;10.40;8.90;;;;;;;-1.93;82.97;99953.52;111136;243;38742;-71
2024/01/06 03:51:06;;;;;;;13.80;10.60;;;;;;;-1.94;83.12;99963.95;111143;244;38666;-71
2024/01/06 03:53:40;;;;;;;14.30;10.10;;;;;;;-1.92;83.27;99968.92;111127;243;38593;-70
2024/01/06 03:56:15;;;;;;;14.40;11.00;;;;;;;-1.94;83.22;99967.55;110450;244;917453;-70
2024/01/06 03:58:49;;;;;;;14.10;10.10;;;;;;;-1.95;83.26;99967.20;111030;244;40351;-70
2024/01/06 04:01:23;;;;;;;14.30;9.60;;;;;;;-1.97;83.24;99963.23;111093;244;40002;-70
2024/01/06 04:03:56;;;;;;;12.10;9.30;;;;;;;-1.93;83.55;99964.64;111087;243;39577;-71
2024/01/06 04:06:31;;;;;;;14.20;10.20;;;;;;;-1.87;83.54;99966.58;110939;244;38726;-71
2024/01/06 04:09:05;;;;;;;14.50;11.10;;;;;;;-1.83;83.57;99970.87;111089;244;38994;-71
2024/01/06 04:11:40;;;;;;;14.30;10.10;;;;;;;-1.77;83.57;99973.29;111074;244;38315;-71
2024/01/06 04:14:13;;;;;;;12.80;10.10;;;;;;;-1.77;83.53;99975.86;111101;244;38668;-70
2024/01/06 04:16:47;;;;;;;14.70;10.90;;;;;;;-1.78;83.56;99973.27;111100;243;39054;-71
2024/01/06 04:19:21;;;;;;;15.70;10.60;;;;;;;-1.79;83.57;99971.39;111103;244;38535;-71
2024/01/06 04:21:54;;;;;;;11.70;9.40;;;;;;;-1.79;83.54;99972.76;111130;244;40117;-71
2024/01/06 04:24:28;;;;;;;10.00;8.80;;;;;;;-1.78;83.58;99969.34;111091;244;39389;-71
2024/01/06 04:27:02;;;;;;;13.20;9.30;;;;;;;-1.79;83.45;99967.63;111110;243;39284;-71
2024/01/06 04:29:36;;;;;;;14.50;10.70;;;;;;;-1.77;83.50;99967.14;110972;244;40417;-71
2024/01/06 04:32:10;;;;;;;16.60;11.00;;;;;;;-1.79;83.53;99967.63;111131;244;38409;-70
2024/01/06 04:34:44;;;;;;;13.30;10.00;;;;;;;-1.80;83.72;99966.77;111063;243;38296;-71
2024/01/06 04:37:17;;;;;;;13.00;10.50;;;;;;;-1.83;83.64;99964.20;111129;244;38491;-71
2024/01/06 04:39:52;;;;;;;12.20;9.80;;;;;;;-1.81;83.66;99967.97;111082;244;38323;-71
2024/01/06 04:42:27;;;;;;;10.10;8.50;;;;;;;-1.86;83.56;99965.90;111106;244;38424;-68
2024/01/06 04:45:05;;;;;;;12.30;8.80;;;;;;;-1.85;83.70;99971.88;111109;244;39797;-70
2024/01/06 04:47:39;;;;;;;11.60;8.70;;;;;;;-1.82;83.85;99976.86;111158;243;38818;-70
2024/01/06 04:50:13;;;;;;;12.10;9.60;;;;;;;-1.85;83.74;99979.73;111129;244;39451;-72
2024/01/06 04:52:47;;;;;;;13.40;10.00;;;;;;;-1.90;83.63;99984.15;111105;244;39469;-71
2024/01/06 04:55:21;;;;;;;13.60;9.80;;;;;;;-1.93;83.93;99988.40;111088;244;39576;-71
2024/01/06 04:57:54;;;;;;;10.90;8.30;;;;;;;-1.94;83.89;99988.23;111010;244;176109;-71
2024/01/06 05:00:28;;;;;;;10.80;8.00;;;;;;;-1.95;83.95;99989.25;110983;244;38369;-71
2024/01/06 05:03:02;;;;;;;11.40;8.90;;;;;;;-1.95;84.11;99982.76;111114;243;38304;-71
2024/01/06 05:05:36;;;;;;;13.30;9.10;;;;;;;-1.93;84.29;99977.12;111063;244;38266;-71
2024/01/06 05:08:11;;;;;;;12.50;8.70;;;;;;;-1.90;84.19;99970.14;111140;243;38368;-71
2024/01/06 05:10:46;;;;;;;12.80;9.80;;;;;;;-1.91;84.29;99967.05;111074;243;39542;-71
2024/01/06 05:13:20;;;;;;;12.90;9.50;;;;;;;-1.90;84.40;99974.23;111108;243;38284;-70
2024/01/06 05:15:54;;;;;;;13.90;9.40;;;;;;;-1.92;84.36;99976.11;111067;243;38310;-70
2024/01/06 05:18:29;;;;;;;10.50;8.60;;;;;;;-1.91;84.43;99976.12;111066;244;38507;-67
2024/01/06 05:21:06;;;;;;;10.80;8.70;;;;;;;-1.89;84.62;99980.23;111042;244;38318;-70
2024/01/06 05:23:40;;;;;;;11.10;9.30;;;;;;;-1.89;84.65;99982.95;111104;244;39413;-71
2024/01/06 05:26:13;;;;;;;13.70;10.50;;;;;;;-1.91;84.77;99985.34;110394;243;918502;-69
2024/01/06 05:28:47;;;;;;;15.10;10.10;;;;;;;-1.94;85.01;99982.92;111104;244;38806;-71
2024/01/06 05:31:21;;;;;;;12.50;10.10;;;;;;;-2.00;84.87;99978.27;111080;244;38438;-71
2024/01/06 05:33:54;;;;;;;14.70;10.00;;;;;;;-2.06;85.17;99983.36;111113;244;38331;-71
2024/01/06 05:36:28;;;;;;;12.10;10.00;;;;;;;-2.08;85.27;99990.36;111076;244;38340;-71
2024/01/06 05:39:01;;;;;;;15.20;11.20;;;;;;;-2.06;85.45;99989.35;111122;244;38449;-71
2024/01/06 05:41:43;;;;;;;14.30;11.40;;;;;;;-2.07;85.83;99993.61;111094;244;38602;-70
2024/01/06 05:44:17;;;;;;;16.80;12.70;;;;;;;-2.08;85.95;99995.13;111137;244;38481;-70
2024/01/06 05:46:51;;;;;;;16.80;12.90;;;;;;;-2.06;85.86;99997.55;111103;244;38635;-70
2024/01/06 05:49:24;;;;;;;16.30;11.40;;;;;;;-2.05;85.98;99999.27;111079;244;39850;-70
2024/01/06 05:51:59;;;;;;;14.70;10.60;;;;;;;-2.05;85.92;100002.86;111092;243;39506;-70
2024/01/06 05:54:33;;;;;;;13.20;10.20;;;;;;;-2.03;86.05;100005.27;111107;244;39128;-69
2024/01/06 05:57:07;;;;;;;14.80;11.20;;;;;;;-2.04;85.96;100007.98;110945;244;198417;-71
2024/01/06 05:59:40;;;;;;;14.90;11.40;;;;;;;-2.02;86.01;100007.65;111083;244;38744;-70
2024/01/06 06:02:14;;;;;;;17.60;11.80;;;;;;;-2.02;86.33;100007.67;111107;243;39162;-69
2024/01/06 06:04:48;;;;;;;15.10;11.60;;;;;;;-2.04;86.03;100008.51;110967;244;38521;-71
2024/01/06 06:07:22;;;;;;;15.30;11.70;;;;;;;-2.05;86.19;100013.29;111093;244;40023;-70
2024/01/06 06:09:56;;;;;;;16.30;11.40;;;;;;;-2.06;86.11;100018.73;111085;244;38415;-70
2024/01/06 06:12:30;;;;;;;13.60;10.60;;;;;;;-2.05;86.09;100023.36;110422;244;919999;-69
2024/01/06 06:15:05;;;;;;;14.00;10.90;;;;;;;-2.11;86.03;100020.08;111084;244;38337;-70
2024/01/06 06:17:39;;;;;;;14.00;10.90;;;;;;;-2.12;85.98;100026.90;111093;243;38246;-70
2024/01/06 06:20:14;;;;;;;14.90;11.60;;;;;;;-2.11;86.23;100035.63;111056;244;38398;-70
2024/01/06 06:22:47;;;;;;;17.50;12.30;;;;;;;-2.12;86.23;100035.62;111016;244;38219;-70
2024/01/06 06:25:21;;;;;;;23.60;16.00;;;;;;;-2.12;86.29;100040.91;111110;244;38379;-70
2024/01/06 06:27:55;;;;;;;15.90;10.90;;;;;;;-2.13;86.25;100038.52;111111;243;40032;-70
2024/01/06 06:30:29;;;;;;;13.70;11.10;;;;;;;-2.11;86.20;100035.80;110842;244;189923;-70
2024/01/06 06:33:03;;;;;;;16.50;12.40;;;;;;;-2.03;86.42;100031.23;111073;243;38394;-71
2024/01/06 06:35:36;;;;;;;19.90;14.20;;;;;;;-2.01;86.33;100035.19;111095;244;39031;-71
2024/01/06 06:38:10;;;;;;;17.20;13.00;;;;;;;-1.99;86.18;100040.16;111121;244;39725;-71
2024/01/06 06:40:44;;;;;;;22.00;14.00;;;;;;;-1.99;86.09;100047.51;111104;244;39549;-71
2024/01/06 06:43:18;;;;;;;31.20;17.70;;;;;;;-2.00;85.98;100054.85;111100;243;39996;-70
2024/01/06 06:45:52;;;;;;;25.30;15.40;;;;;;;-2.02;85.84;100064.24;110974;243;189630;-70
2024/01/06 06:48:26;;;;;;;15.40;11.20;;;;;;;-2.06;85.61;100075.66;111132;244;38986;-72
2024/01/06 06:51:00;;;;;;;21.60;14.30;;;;;;;-2.06;85.58;100079.77;111078;243;39458;-70
2024/01/06 06:53:34;;;;;;;43.80;23.00;;;;;;;-2.01;85.85;100076.03;111120;244;39484;-71
2024/01/06 06:56:08;;;;;;;19.90;13.20;;;;;;;-1.94;86.19;100083.44;111071;244;38882;-71
2024/01/06 06:58:42;;;;;;;29.50;17.50;;;;;;;-1.92;85.99;100083.46;111011;244;38689;-70
2024/01/06 07:01:17;;;;;;;42.80;22.40;;;;;;;-1.97;85.51;100082.23;111085;243;38598;-69
2024/01/06 07:03:51;;;;;;;41.50;22.20;;;;;;;-2.04;85.44;100075.50;111060;244;39197;-69
2024/01/06 07:06:25;;;;;;;43.30;22.30;;;;;;;-2.08;85.47;100069.82;111025;244;38819;-70
2024/01/06 07:09:01;;;;;;;21.50;14.00;;;;;;;-2.08;85.64;100072.73;111140;244;38278;-70
2024/01/06 07:11:35;;;;;;;28.20;18.00;;;;;;;-2.02;85.87;100075.35;111068;244;39682;-70
2024/01/06 07:14:10;;;;;;;31.90;19.30;;;;;;;-1.96;85.79;100077.63;111074;243;38416;-69
2024/01/06 07:16:49;;;;;;;22.70;15.70;;;;;;;-1.98;85.54;100065.30;111070;244;38594;-69
2024/01/06 07:19:25;;;;;;;25.70;16.30;;;;;;;-2.00;85.32;100058.63;111074;244;38396;-70
2024/01/06 07:22:09;;;;;;;23.60;16.40;;;;;;;-2.02;85.32;100056.05;111094;243;38445;-69
2024/01/06 07:24:49;;;;;;;16.70;12.00;;;;;;;-2.06;85.32;100059.77;111102;244;39294;-69
2024/01/06 07:27:24;;;;;;;14.80;10.50;;;;;;;-2.07;85.40;100062.31;111117;244;39565;-70
2024/01/06 07:29:58;;;;;;;15.30;11.60;;;;;;;-2.06;85.17;100071.05;111121;244;38515;-70
2024/01/06 07:32:38;;;;;;;15.10;11.50;;;;;;;-2.04;85.30;100076.18;111078;244;39361;-69
2024/01/06 07:35:16;;;;;;;14.30;11.30;;;;;;;-2.00;85.39;100080.84;111089;244;38408;-70
2024/01/06 07:37:49;;;;;;;14.90;11.00;;;;;;;-1.95;85.41;100083.27;111107;243;38726;-69
2024/01/06 07:40:25;;;;;;;16.60;11.70;;;;;;;-1.94;85.32;100092.50;111103;243;38589;-70
2024/01/06 07:42:59;;;;;;;17.30;12.30;;;;;;;-1.94;85.45;100099.16;111102;244;38478;-71
2024/01/06 07:45:33;;;;;;;17.60;12.40;;;;;;;-1.95;85.25;100105.84;111053;244;38329;-71
2024/01/06 07:48:09;;;;;;;14.90;10.10;;;;;;;-1.94;85.27;100106.86;111003;244;176067;-69
2024/01/06 07:50:43;;;;;;;19.30;13.30;;;;;;;-1.94;85.31;100111.83;111059;243;38313;-70
2024/01/06 07:53:17;;;;;;;13.90;11.10;;;;;;;-1.88;85.27;100114.09;111108;244;38398;-71
2024/01/06 07:55:51;;;;;;;15.60;11.00;;;;;;;-1.86;85.13;100116.67;111049;244;39901;-70
2024/01/06 07:58:24;;;;;;;15.00;10.70;;;;;;;-1.85;85.11;100117.55;111112;244;38536;-70
2024/01/06 08:00:58;;;;;;;17.10;11.70;;;;;;;-1.85;85.06;100114.30;111075;244;38325;-70
2024/01/06 08:03:33;;;;;;;15.60;11.80;;;;;;;-1.84;85.21;100116.35;111027;244;176084;-71
2024/01/06 08:06:07;;;;;;;16.30;11.60;;;;;;;-1.85;84.99;100121.98;111105;244;39746;-71
2024/01/06 08:08:41;;;;;;;14.10;10.40;;;;;;;-1.86;85.00;100124.72;111130;244;38550;-71
2024/01/06 08:11:15;;;;;;;15.40;10.90;;;;;;;-1.83;84.98;100122.69;110997;244;173325;-70
2024/01/06 08:13:48;;;;;;;13.10;10.90;;;;;;;-1.80;84.86;100119.80;111135;244;39023;-71
2024/01/06 08:16:22;;;;;;;16.40;11.10;;;;;;;-1.77;84.89;100115.55;111116;244;39899;-71
2024/01/06 08:19:02;;;;;;;16.30;11.60;;;;;;;-1.72;85.02;100118.67;111115;244;38341;-67
2024/01/06 08:21:37;;;;;;;21.20;14.30;;;;;;;-1.74;84.65;100117.63;111063;244;40002;-70
2024/01/06 08:24:18;;;;;;;16.40;12.50;;;;;;;-1.78;84.69;100118.29;111080;244;38280;-70
2024/01/06 08:26:52;;;;;;;15.90;11.60;;;;;;;-1.79;84.81;100123.05;111110;243;38710;-72
2024/01/06 08:29:28;;;;;;;11.90;9.80;;;;;;;-1.77;84.77;100125.64;111103;244;40174;-72
2024/01/06 08:32:02;;;;;;;16.80;10.30;;;;;;;-1.73;84.75;100132.34;111055;243;39292;-71
2024/01/06 08:34:36;;;;;;;14.00;10.70;;;;;;;-1.68;84.46;100138.55;111079;244;38976;-70
2024/01/06 08:37:10;;;;;;;16.70;10.60;;;;;;;-1.64;84.47;100141.80;111025;244;176066;-69
2024/01/06 08:39:44;;;;;;;17.80;11.00;;;;;;;-1.64;84.11;100152.08;111083;243;38898;-70
2024/01/06 08:42:20;;;;;;;19.10;11.70;;;;;;;-1.65;84.08;100150.20;111131;244;38435;-70
2024/01/06 08:44:55;;;;;;;16.20;11.70;;;;;;;-1.68;84.21;100149.48;111083;244;38564;-70
2024/01/06 08:47:29;;;;;;;13.00;10.00;;;;;;;-1.66;84.10;100158.05;111115;244;39854;-70
2024/01/06 08:50:06;;;;;;;11.90;9.40;;;;;;;-1.68;84.10;100161.29;111090;243;38370;-69
2024/01/06 08:52:40;;;;;;;11.10;8.20;;;;;;;-1.63;84.16;100162.86;111205;244;38668;-71
2024/01/06 08:55:14;;;;;;;13.20;10.20;;;;;;;-1.61;83.59;100168.86;111083;244;38394;-70
2024/01/06 08:57:48;;;;;;;11.80;10.30;;;;;;;-1.64;83.53;100165.92;111138;244;38450;-68
2024/01/06 09:00:22;;;;;;;11.80;9.90;;;;;;;-1.61;83.56;100174.52;111125;244;38251;-70
2024/01/06 09:03:00;;;;;;;12.70;9.80;;;;;;;-1.63;83.49;100174.83;111126;243;38439;-71
2024/01/06 09:05:41;;;;;;;11.10;9.00;;;;;;;-1.65;83.46;100174.64;111000;244;39231;-70
2024/01/06 09:08:23;;;;;;;12.70;9.80;;;;;;;-1.69;83.23;100182.65;111034;244;38273;-71
2024/01/06 09:11:15;;;;;;;10.70;8.50;;;;;;;-1.69;83.34;100181.95;111033;244;40008;-70
2024/01/06 09:14:01;;;;;;;16.50;11.50;;;;;;;-1.71;82.93;100181.44;111183;244;38782;-70
2024/01/06 09:16:50;;;;;;;18.60;12.50;;;;;;;-1.69;83.32;100177.86;111094;244;38506;-69
2024/01/06 09:19:34;;;;;;;21.70;14.80;;;;;;;-1.67;83.18;100178.56;111029;244;38447;-71
2024/01/06 09:22:09;;;;;;;14.90;10.80;;;;;;;-1.68;83.24;100182.66;111156;244;38374;-71
2024/01/06 09:24:46;;;;;;;19.00;13.50;;;;;;;-1.68;83.32;100186.08;111069;244;40016;-71
2024/01/06 09:27:20;;;;;;;23.30;14.50;;;;;;;-1.67;83.56;100183.00;111114;243;38270;-71
2024/01/06 09:29:54;;;;;;;17.50;11.30;;;;;;;-1.65;83.30;100185.25;111046;244;38233;-71
2024/01/06 09:32:27;;;;;;;16.70;11.60;;;;;;;-1.66;83.10;100180.79;111068;244;39248;-71
2024/01/06 09:35:01;;;;;;;13.40;9.60;;;;;;;-1.64;83.35;100176.02;111075;243;38240;-71
2024/01/06 09:37:35;;;;;;;12.80;10.40;;;;;;;-1.61;83.34;100174.51;111119;244;38300;-70
2024/01/06 09:40:12;;;;;;;14.00;9.90;;;;;;;-1.58;83.46;100172.66;111078;244;38902;-71
2024/01/06 09:42:46;;;;;;;13.40;9.90;;;;;;;-1.57;83.17;100175.06;111122;244;38321;-71
2024/01/06 09:45:20;;;;;;;12.00;9.00;;;;;;;-1.64;82.74;100183.38;110945;243;176063;-71
2024/01/06 09:47:55;;;;;;;11.90;7.40;;;;;;;-1.64;83.07;100183.54;111120;244;38666;-73
2024/01/06 09:50:29;;;;;;;11.50;9.20;;;;;;;-1.60;83.19;100189.05;111113;244;38785;-71
2024/01/06 09:53:05;;;;;;;11.90;9.20;;;;;;;-1.55;83.65;100188.59;110947;244;38882;-71
2024/01/06 09:55:43;;;;;;;8.90;7.90;;;;;;;-1.48;83.60;100191.20;111095;244;38252;-71
2024/01/06 09:58:18;;;;;;;11.10;8.90;;;;;;;-1.43;83.52;100191.76;111093;244;39962;-70
2024/01/06 10:00:54;;;;;;;9.50;8.40;;;;;;;-1.41;83.39;100190.41;110995;244;38286;-69
2024/01/06 10:03:29;;;;;;;11.50;8.60;;;;;;;-1.43;83.15;100186.80;111122;243;39642;-70
2024/01/06 10:06:05;;;;;;;9.10;6.80;;;;;;;-1.45;83.25;100185.58;110958;244;39267;-70
2024/01/06 10:08:40;;;;;;;7.90;6.40;;;;;;;-1.40;83.06;100193.14;111111;244;38625;-70
2024/01/06 10:11:14;;;;;;;10.70;8.20;;;;;;;-1.38;83.04;100183.41;111083;244;38243;-71
2024/01/06 10:13:48;;;;;;;10.00;7.90;;;;;;;-1.32;83.52;100183.11;111133;243;39776;-72
2024/01/06 10:16:23;;;;;;;10.70;8.40;;;;;;;-1.28;83.37;100184.33;111157;244;38289;-72
2024/01/06 10:18:57;;;;;;;9.60;8.20;;;;;;;-1.26;83.55;100187.27;111091;244;38566;-71
2024/01/06 10:21:31;;;;;;;10.00;7.80;;;;;;;-1.29;83.19;100190.84;110936;244;175728;-70
2024/01/06 10:24:07;;;;;;;8.30;7.20;;;;;;;-1.32;83.26;100195.09;111111;244;38298;-70
2024/01/06 10:26:42;;;;;;;12.00;7.70;;;;;;;-1.32;83.24;100189.27;111077;244;38547;-71
2024/01/06 10:29:16;;;;;;;14.30;8.50;;;;;;;-1.32;83.22;100192.88;110964;244;38925;-70
2024/01/06 10:31:50;;;;;;;14.10;8.70;;;;;;;-1.30;83.30;100193.91;111117;244;39778;-70
2024/01/06 10:34:24;;;;;;;13.00;8.30;;;;;;;-1.33;83.33;100193.54;110997;244;38995;-73
2024/01/06 10:36:58;;;;;;;14.90;9.10;;;;;;;-1.35;83.41;100190.61;111075;244;40082;-70
2024/01/06 10:39:31;;;;;;;15.50;8.90;;;;;;;-1.38;83.39;100193.68;110986;244;176045;-71
2024/01/06 10:42:09;;;;;;;11.60;8.50;;;;;;;-1.41;83.44;100196.39;111015;244;38643;-72
2024/01/06 10:44:43;;;;;;;14.10;8.80;;;;;;;-1.42;83.45;100196.38;110975;244;38861;-70
2024/01/06 10:47:17;;;;;;;13.30;8.90;;;;;;;-1.40;83.54;100197.25;111099;244;39245;-71
2024/01/06 10:49:54;;;;;;;12.90;8.80;;;;;;;-1.37;83.65;100196.60;111161;243;38387;-70
2024/01/06 10:52:28;;;;;;;11.30;9.20;;;;;;;-1.38;83.63;100196.93;111128;244;38764;-70
2024/01/06 10:55:04;;;;;;;14.10;9.60;;;;;;;-1.36;83.91;100188.90;111062;244;38322;-72
2024/01/06 10:57:38;;;;;;;16.70;10.80;;;;;;;-1.32;84.00;100196.45;111083;244;38435;-71
2024/01/06 11:00:17;;;;;;;14.20;10.10;;;;;;;-1.33;83.80;100192.86;111086;244;38331;-70
2024/01/06 11:02:52;;;;;;;12.80;9.50;;;;;;;-1.36;83.69;100186.16;111136;244;39429;-70
2024/01/06 11:05:26;;;;;;;11.90;8.80;;;;;;;-1.35;83.93;100183.77;111075;244;38261;-70
2024/01/06 11:08:01;;;;;;;12.40;9.50;;;;;;;-1.33;83.88;100183.95;111152;243;38239;-71
2024/01/06 11:10:36;;;;;;;12.70;8.90;;;;;;;-1.31;83.82;100184.83;110989;244;38556;-71
2024/01/06 11:13:20;;;;;;;15.10;10.10;;;;;;;-1.28;84.11;100187.59;111012;244;176013;-72
2024/01/06 11:15:57;;;;;;;14.40;9.70;;;;;;;-1.25;84.12;100185.89;111090;244;39574;-72
2024/01/06 11:18:38;;;;;;;12.70;8.50;;;;;;;-1.26;83.91;100188.80;110996;244;38372;-71
2024/01/06 11:21:26;;;;;;;13.60;9.20;;;;;;;-1.24;84.12;100187.96;111076;244;39728;-70
2024/01/06 11:24:20;;;;;;;8.60;7.50;;;;;;;-1.17;84.19;100190.05;111116;243;38302;-71
2024/01/06 11:27:01;;;;;;;10.90;8.40;;;;;;;-1.09;84.08;100193.54;111083;244;38836;-72
2024/01/06 11:29:36;;;;;;;10.60;7.90;;;;;;;-1.02;84.03;100196.14;111058;243;38264;-72
2024/01/06 11:32:25;;;;;;;12.70;8.70;;;;;;;-0.98;83.59;100196.68;111111;244;39034;-72
2024/01/06 11:35:05;;;;;;;;;;;;;;;-0.91;84.06;100199.30;111120;244;38477;-71
2024/01/06 11:37:55;;;;;;;12.40;9.80;;;;;;;-0.87;84.03;100196.58;110441;244;915416;-72
2024/01/06 11:40:36;;;;;;;10.60;8.70;;;;;;;-0.81;84.03;100192.67;111066;244;38358;-71
2024/01/06 11:43:11;;;;;;;14.30;10.20;;;;;;;-0.78;83.95;100193.02;111095;243;38401;-71
2024/01/06 11:45:46;;;;;;;12.10;8.60;;;;;;;-0.73;83.43;100196.31;111082;244;39611;-71
2024/01/06 11:48:19;;;;;;;10.30;8.20;;;;;;;-0.67;83.26;100199.77;111150;244;38705;-70
2024/01/06 11:50:53;;;;;;;10.30;8.30;;;;;;;-0.64;82.91;100198.92;111060;244;38426;-71
2024/01/06 11:53:27;;;;;;;11.40;8.50;;;;;;;-0.64;82.27;100201.65;111098;244;39591;-70